Saga Sapphire — 9HOF8 — position and weather

sailwx.info

Track history (hours):
 
Tides and Currents Weather Stations Pressure Air Temp Water Temp Dewpoint Dewpoint Depression Visibility Wind Speed Wind Dir Waves Ship Positions

Saga Sapphire

Last reported at 2018-Feb-25 07:27 UTC. Time now 2018-Feb-25 07:50 UTC.
Position N 43°50' W 003°18'.

Length 200 m; draft 8.6 m.

Type: Ship. MMSI: 256208000.

Date/timePositionNaut miles runAvg speedWind from/ knotsBaromVisibWave heightAir tempDewpointWater temp
2018-Feb-25 07:27N 43°50' W 003°18'3715.0
2018-Feb-25 05:00N 44°24' W 003°36'4411.0 070 / 121013.210.8 8.4 4.011.0
2018-Feb-25 01:00N 45°06' W 003°54'15314.0 080 / 221013.2 5.4 7.1 5.111.0
2018-Feb-24 14:05N 47°31' W 005°04'114.9
2018-Feb-24 14:00N 47°32' W 005°05'715.0
2018-Feb-24 13:30N 47°39' W 005°08'815.1
2018-Feb-24 13:00N 47°46' W 005°11'715.2
2018-Feb-24 12:30N 47°53' W 005°15'814.8
2018-Feb-24 11:56N 48°01' W 005°19'715.1
2018-Feb-24 11:31N 48°08' W 005°22'814.9
2018-Feb-24 11:00N 48°15' W 005°25'814.7
2018-Feb-24 10:29N 48°23' W 005°26'714.0
2018-Feb-24 10:00N 48°29' W 005°26'713.9
2018-Feb-24 09:30N 48°35' W 005°20'713.8
2018-Feb-24 09:00N 48°40' W 005°13'713.8
2018-Feb-24 08:30N 48°45' W 005°06'714.1
2018-Feb-24 08:00N 48°50' W 004°58'714.3
2018-Feb-24 07:30N 48°55' W 004°50'7514.8
2018-Feb-24 02:27N 49°45' W 003°26'614.4
2018-Feb-24 02:00N 49°51' W 003°22'713.8
2018-Feb-24 01:31N 49°58' W 003°18'713.9
2018-Feb-24 01:01N 50°03' W 003°11'713.7
2018-Feb-24 00:30N 50°07' W 003°03'713.6
2018-Feb-24 00:00N 50°11' W 002°55'813.9
2018-Feb-23 23:28N 50°15' W 002°44'613.9
2018-Feb-23 23:00N 50°19' W 002°36'714.4
2018-Feb-23 22:30N 50°22' W 002°26'1114.7
2018-Feb-23 21:47N 50°27' W 002°11'415.2
2018-Feb-23 21:30N 50°28' W 002°05'815.5
2018-Feb-23 21:00N 50°32' W 001°54'815.8
2018-Feb-23 20:30N 50°35' W 001°43'815.1
2018-Feb-23 20:00N 50°41' W 001°35'714.6
2018-Feb-23 19:31N 50°45' W 001°25'611.5
2018-Feb-23 19:00N 50°48' W 001°18'5 9.6
2018-Feb-23 18:30N 50°52' W 001°22'3 5.1
2018-Feb-23 18:00N 50°54' W 001°25'0 0.0
2018-Feb-23 17:30N 50°54' W 001°25'0 0.0
2018-Feb-23 17:00N 50°54' W 001°25'0 0.0
2018-Feb-23 16:30N 50°54' W 001°25'0 0.0
2018-Feb-23 15:54N 50°54' W 001°25'0 0.0
2018-Feb-23 15:24N 50°54' W 001°25'0 0.0
2018-Feb-23 14:54N 50°54' W 001°25'0 0.0
2018-Feb-23 14:21N 50°54' W 001°25'0 0.0
2018-Feb-23 13:54N 50°54' W 001°25'0 0.0
2018-Feb-23 13:24N 50°54' W 001°25'0 0.0
2018-Feb-23 12:57N 50°54' W 001°25'0 0.0
2018-Feb-23 12:27N 50°54' W 001°25'0 0.0
2018-Feb-23 12:00N 50°54' W 001°25'0 0.0
2018-Feb-23 11:27N 50°54' W 001°25'0 0.0
2018-Feb-23 11:00N 50°54' W 001°25'0 0.0
2018-Feb-23 10:27N 50°54' W 001°25'0 0.0
2018-Feb-23 10:00N 50°54' W 001°25'0 0.0
2018-Feb-23 09:30N 50°54' W 001°25'0 0.0
2018-Feb-23 09:00N 50°54' W 001°25'0 0.0
2018-Feb-23 08:30N 50°54' W 001°25'0 0.0
2018-Feb-23 08:00N 50°54' W 001°25'0 0.0
2018-Feb-23 07:30N 50°54' W 001°25'0 0.0
2018-Feb-23 06:57N 50°54' W 001°25'0 0.0
2018-Feb-23 06:30N 50°54' W 001°25'2 3.1
2018-Feb-23 06:00N 50°53' W 001°23'4 8.8
2018-Feb-23 05:30N 50°50' W 001°18'4 8.7
2018-Feb-23 05:00N 50°46' W 001°21'5 9.2
2018-Feb-23 04:30N 50°44' W 001°28'611.7
2018-Feb-23 04:00N 50°40' W 001°35'713.9
2018-Feb-23 03:31N 50°35' W 001°42'714.9
2018-Feb-23 03:00N 50°29' W 001°49'713.9
2018-Feb-23 02:30N 50°24' W 001°56'1813.4
2018-Feb-23 01:09N 50°16' W 002°22'215.0
2018-Feb-23 01:00N 50°15' W 002°25'714.5
2018-Feb-23 00:30N 50°13' W 002°36'713.4
2018-Feb-23 00:00N 50°11' W 002°46'713.0
2018-Feb-22 23:30N 50°09' W 002°56'612.0
2018-Feb-22 23:00N 50°07' W 003°04'611.6
2018-Feb-22 22:30N 50°05' W 003°13'611.3
2018-Feb-22 22:00N 50°01' W 003°19'611.5
2018-Feb-22 21:30N 49°56' W 003°24'611.2
2018-Feb-22 21:00N 49°53' W 003°31'6311.0
2018-Feb-22 15:17N 49°05' W 004°35'310.9
2018-Feb-22 15:00N 49°03' W 004°38'610.9
2018-Feb-22 14:29N 48°59' W 004°44'610.4
2018-Feb-22 13:57N 48°54' W 004°49'512.2
2018-Feb-22 13:30N 48°50' W 004°55'612.2
2018-Feb-22 13:00N 48°46' W 005°01'612.2
2018-Feb-22 12:30N 48°42' W 005°08'612.3
2018-Feb-22 12:00N 48°38' W 005°15'612.5
2018-Feb-22 11:30N 48°33' W 005°21'612.7
2018-Feb-22 11:00N 48°28' W 005°27'612.9
2018-Feb-22 10:31N 48°23' W 005°32'713.2
2018-Feb-22 10:00N 48°17' W 005°37'713.5
2018-Feb-22 09:30N 48°11' W 005°42'713.7
2018-Feb-22 09:00N 48°05' W 005°47'19814.1
2018-Feb-21 19:00N 45°12' W 008°06'16213.5 050 / 251019.210.8 10.1-8.413.0
2018-Feb-21 07:00N 42°48' W 009°48'5513.7 020 / 381018.410.8 10.8 9.014.0
2018-Feb-21 03:00N 41°54' W 010°00'14513.9 010 / 371018.110.8 12.5 9.614.0
2018-Feb-20 16:32N 39°33' W 010°42'413.8
2018-Feb-20 16:13N 39°28' W 010°43'313.7
2018-Feb-20 16:00N 39°25' W 010°44'713.9
2018-Feb-20 15:28N 39°18' W 010°45'614.0
2018-Feb-20 15:00N 39°12' W 010°47'5214.2
2018-Feb-20 11:23N 38°21' W 010°59'514.6
2018-Feb-20 11:00N 38°16' W 011°01'814.7
2018-Feb-20 10:28N 38°08' W 011°03'1114.7
2018-Feb-20 09:43N 37°57' W 011°06'514.7
2018-Feb-20 09:23N 37°53' W 011°07'914.5
2018-Feb-20 08:48N 37°44' W 011°09'414.2
2018-Feb-20 08:30N 37°40' W 011°10'914.1
2018-Feb-20 07:54N 37°32' W 011°12'10014.4
2018-Feb-20 01:00N 35°54' W 011°36'34914.5 350 / 341019.110.8 14.710.515.0
2018-Feb-19 01:00N 30°12' W 013°00'6014.6 350 / 201018.010.8 16.510.917.0
2018-Feb-18 20:54N 29°14' W 013°15'513.9
2018-Feb-18 20:30N 29°09' W 013°18'714.5
2018-Feb-18 20:00N 29°03' W 013°23'713.6
2018-Feb-18 19:30N 28°58' W 013°28'3 6.0
2018-Feb-18 19:00N 28°58' W 013°32'0 0.3
2018-Feb-18 18:26N 28°58' W 013°32'0 0.0
2018-Feb-18 17:56N 28°58' W 013°32'0 0.0
2018-Feb-18 17:26N 28°58' W 013°32'0 0.0
2018-Feb-18 16:56N 28°58' W 013°32'0 0.0
2018-Feb-18 16:26N 28°58' W 013°32'0 0.0
2018-Feb-18 15:50N 28°58' W 013°32'0 0.0
2018-Feb-18 15:26N 28°58' W 013°32'0 0.0
2018-Feb-18 14:56N 28°58' W 013°32'0 0.0
2018-Feb-18 14:26N 28°58' W 013°32'0 0.0
2018-Feb-18 13:56N 28°58' W 013°32'0 0.0
2018-Feb-18 13:20N 28°58' W 013°32'0 0.0
2018-Feb-18 12:59N 28°58' W 013°32'0 0.0
2018-Feb-18 12:20N 28°58' W 013°32'0 0.0
2018-Feb-18 11:56N 28°58' W 013°32'0 0.0
2018-Feb-18 11:14N 28°58' W 013°32'0 0.0
2018-Feb-18 10:50N 28°58' W 013°32'0 0.0
2018-Feb-18 10:26N 28°58' W 013°32'0 0.0
2018-Feb-18 09:56N 28°58' W 013°32'0 0.0
2018-Feb-18 09:26N 28°58' W 013°32'0 0.0
2018-Feb-18 08:56N 28°58' W 013°32'0 0.0
2018-Feb-18 08:26N 28°58' W 013°32'0 0.8
2018-Feb-18 08:01N 28°58' W 013°32'2 3.0
2018-Feb-18 07:30N 28°56' W 013°32'5 9.5
2018-Feb-18 07:01N 28°54' W 013°37'713.3
2018-Feb-18 06:29N 28°50' W 013°44'612.9
2018-Feb-18 06:00N 28°48' W 013°50'1014.8
2018-Feb-18 05:21N 28°48' W 014°02'3515.1
2018-Feb-18 03:00N 28°42' W 014°42'816.0
2018-Feb-18 02:30N 28°40' W 014°50'816.2
2018-Feb-18 02:00N 28°39' W 014°59'5376.4
2018-Feb-18 02:00N 28°36' W 014°54'1325.1 010 / 261021.610.8 16.211.817.0
2018-Feb-18 01:29N 28°37' W 015°08'714.8
2018-Feb-18 01:00N 28°36' W 015°16'714.7
2018-Feb-18 00:30N 28°36' W 015°25'714.6
2018-Feb-18 00:00N 28°35' W 015°33'714.5
2018-Feb-17 23:30N 28°34' W 015°41'714.3
2018-Feb-17 23:00N 28°29' W 015°47'714.4
2018-Feb-17 22:30N 28°24' W 015°52'713.2
2018-Feb-17 22:00N 28°20' W 015°59'714.7
2018-Feb-17 21:30N 28°23' W 016°06'713.8
2018-Feb-17 21:01N 28°27' W 016°12'2 4.7
2018-Feb-17 20:30N 28°29' W 016°14'0 0.5
2018-Feb-17 19:55N 28°28' W 016°15'0 0.0
2018-Feb-17 19:28N 28°28' W 016°15'0 0.0
2018-Feb-17 18:58N 28°28' W 016°15'0 0.0
2018-Feb-17 18:28N 28°28' W 016°15'0 0.0
2018-Feb-17 17:58N 28°28' W 016°15'0 0.0
2018-Feb-17 17:28N 28°28' W 016°15'0 0.0
2018-Feb-17 16:58N 28°28' W 016°15'0 0.0
2018-Feb-17 16:28N 28°28' W 016°15'0 0.0
2018-Feb-17 15:58N 28°28' W 016°15'0 0.0
2018-Feb-17 15:28N 28°28' W 016°15'0 0.0
2018-Feb-17 14:58N 28°28' W 016°15'0 0.0
2018-Feb-17 14:28N 28°28' W 016°15'0 0.0
2018-Feb-17 13:58N 28°28' W 016°15'0 0.0
2018-Feb-17 13:28N 28°28' W 016°15'0 0.0
2018-Feb-17 12:58N 28°28' W 016°15'0 0.0
2018-Feb-17 12:28N 28°28' W 016°15'0 0.0
2018-Feb-17 11:58N 28°28' W 016°15'0 0.0
2018-Feb-17 11:28N 28°28' W 016°15'0 0.0
2018-Feb-17 10:58N 28°28' W 016°15'0 0.0
2018-Feb-17 10:28N 28°28' W 016°15'0 0.0
2018-Feb-17 09:58N 28°28' W 016°15'0 0.0
2018-Feb-17 09:28N 28°28' W 016°15'0 0.0
2018-Feb-17 08:58N 28°28' W 016°15'0 0.0
2018-Feb-17 08:28N 28°28' W 016°15'0 0.0
2018-Feb-17 07:58N 28°28' W 016°15'0 0.0
2018-Feb-17 07:28N 28°28' W 016°15'1 1.6
2018-Feb-17 07:00N 28°29' W 016°14'3 6.6
2018-Feb-17 06:30N 28°27' W 016°11'611.4
2018-Feb-17 06:00N 28°25' W 016°05'612.0
2018-Feb-17 05:30N 28°21' W 015°59'5 9.7
2018-Feb-17 05:00N 28°17' W 015°57'5714.3
2018-Feb-17 01:00N 27°36' W 016°42'30814.7 020 / 271023.010.8 17.515.817.0
2018-Feb-16 04:00N 26°06' W 022°12'   030 / 201020.410.8 19.013.2
Track history (hours):
 
Tides and Currents Weather Stations Pressure Air Temp Water Temp Dewpoint Dewpoint Depression Visibility Wind Speed Wind Dir Waves Ship Positions

Saga Sapphire

Last reported at 2018-Feb-25 07:27 UTC. Time now 2018-Feb-25 07:50 UTC.
Position N 43°50' W 003°18'.

Length 200 m; draft 8.6 m.

Type: Ship. MMSI: 256208000.

Date/timePositionNaut miles runAvg speedWind from/ knotsBaromVisibWave heightAir tempDewpointWater temp
2018-Feb-25 07:27N 43°50' W 003°18'3715.0
2018-Feb-25 05:00N 44°24' W 003°36'4411.0 070 / 121013.210.8 8.4 4.011.0
2018-Feb-25 01:00N 45°06' W 003°54'15314.0 080 / 221013.2 5.4 7.1 5.111.0
2018-Feb-24 14:05N 47°31' W 005°04'114.9
2018-Feb-24 14:00N 47°32' W 005°05'715.0
2018-Feb-24 13:30N 47°39' W 005°08'815.1
2018-Feb-24 13:00N 47°46' W 005°11'715.2
2018-Feb-24 12:30N 47°53' W 005°15'814.8
2018-Feb-24 11:56N 48°01' W 005°19'715.1
2018-Feb-24 11:31N 48°08' W 005°22'814.9
2018-Feb-24 11:00N 48°15' W 005°25'814.7
2018-Feb-24 10:29N 48°23' W 005°26'714.0
2018-Feb-24 10:00N 48°29' W 005°26'713.9
2018-Feb-24 09:30N 48°35' W 005°20'713.8
2018-Feb-24 09:00N 48°40' W 005°13'713.8
2018-Feb-24 08:30N 48°45' W 005°06'714.1
2018-Feb-24 08:00N 48°50' W 004°58'714.3
2018-Feb-24 07:30N 48°55' W 004°50'7514.8
2018-Feb-24 02:27N 49°45' W 003°26'614.4
2018-Feb-24 02:00N 49°51' W 003°22'713.8
2018-Feb-24 01:31N 49°58' W 003°18'713.9
2018-Feb-24 01:01N 50°03' W 003°11'713.7
2018-Feb-24 00:30N 50°07' W 003°03'713.6
2018-Feb-24 00:00N 50°11' W 002°55'813.9
2018-Feb-23 23:28N 50°15' W 002°44'613.9
2018-Feb-23 23:00N 50°19' W 002°36'714.4
2018-Feb-23 22:30N 50°22' W 002°26'1114.7
2018-Feb-23 21:47N 50°27' W 002°11'415.2
2018-Feb-23 21:30N 50°28' W 002°05'815.5
2018-Feb-23 21:00N 50°32' W 001°54'815.8
2018-Feb-23 20:30N 50°35' W 001°43'815.1
2018-Feb-23 20:00N 50°41' W 001°35'714.6
2018-Feb-23 19:31N 50°45' W 001°25'611.5
2018-Feb-23 19:00N 50°48' W 001°18'5 9.6
2018-Feb-23 18:30N 50°52' W 001°22'3 5.1
2018-Feb-23 18:00N 50°54' W 001°25'0 0.0
2018-Feb-23 17:30N 50°54' W 001°25'0 0.0
2018-Feb-23 17:00N 50°54' W 001°25'0 0.0
2018-Feb-23 16:30N 50°54' W 001°25'0 0.0
2018-Feb-23 15:54N 50°54' W 001°25'0 0.0
2018-Feb-23 15:24N 50°54' W 001°25'0 0.0
2018-Feb-23 14:54N 50°54' W 001°25'0 0.0
2018-Feb-23 14:21N 50°54' W 001°25'0 0.0
2018-Feb-23 13:54N 50°54' W 001°25'0 0.0
2018-Feb-23 13:24N 50°54' W 001°25'0 0.0
2018-Feb-23 12:57N 50°54' W 001°25'0 0.0
2018-Feb-23 12:27N 50°54' W 001°25'0 0.0
2018-Feb-23 12:00N 50°54' W 001°25'0 0.0
2018-Feb-23 11:27N 50°54' W 001°25'0 0.0
2018-Feb-23 11:00N 50°54' W 001°25'0 0.0
2018-Feb-23 10:27N 50°54' W 001°25'0 0.0
2018-Feb-23 10:00N 50°54' W 001°25'0 0.0
2018-Feb-23 09:30N 50°54' W 001°25'0 0.0
2018-Feb-23 09:00N 50°54' W 001°25'0 0.0
2018-Feb-23 08:30N 50°54' W 001°25'0 0.0
2018-Feb-23 08:00N 50°54' W 001°25'0 0.0
2018-Feb-23 07:30N 50°54' W 001°25'0 0.0
2018-Feb-23 06:57N 50°54' W 001°25'0 0.0
2018-Feb-23 06:30N 50°54' W 001°25'2 3.1
2018-Feb-23 06:00N 50°53' W 001°23'4 8.8
2018-Feb-23 05:30N 50°50' W 001°18'4 8.7
2018-Feb-23 05:00N 50°46' W 001°21'5 9.2
2018-Feb-23 04:30N 50°44' W 001°28'611.7
2018-Feb-23 04:00N 50°40' W 001°35'713.9
2018-Feb-23 03:31N 50°35' W 001°42'714.9
2018-Feb-23 03:00N 50°29' W 001°49'713.9
2018-Feb-23 02:30N 50°24' W 001°56'1813.4
2018-Feb-23 01:09N 50°16' W 002°22'215.0
2018-Feb-23 01:00N 50°15' W 002°25'714.5
2018-Feb-23 00:30N 50°13' W 002°36'713.4
2018-Feb-23 00:00N 50°11' W 002°46'713.0
2018-Feb-22 23:30N 50°09' W 002°56'612.0
2018-Feb-22 23:00N 50°07' W 003°04'611.6
2018-Feb-22 22:30N 50°05' W 003°13'611.3
2018-Feb-22 22:00N 50°01' W 003°19'611.5
2018-Feb-22 21:30N 49°56' W 003°24'611.2
2018-Feb-22 21:00N 49°53' W 003°31'6311.0
2018-Feb-22 15:17N 49°05' W 004°35'310.9
2018-Feb-22 15:00N 49°03' W 004°38'610.9
2018-Feb-22 14:29N 48°59' W 004°44'610.4
2018-Feb-22 13:57N 48°54' W 004°49'512.2
2018-Feb-22 13:30N 48°50' W 004°55'612.2
2018-Feb-22 13:00N 48°46' W 005°01'612.2
2018-Feb-22 12:30N 48°42' W 005°08'612.3
2018-Feb-22 12:00N 48°38' W 005°15'612.5
2018-Feb-22 11:30N 48°33' W 005°21'612.7
2018-Feb-22 11:00N 48°28' W 005°27'612.9
2018-Feb-22 10:31N 48°23' W 005°32'713.2
2018-Feb-22 10:00N 48°17' W 005°37'713.5
2018-Feb-22 09:30N 48°11' W 005°42'713.7
2018-Feb-22 09:00N 48°05' W 005°47'19814.1
2018-Feb-21 19:00N 45°12' W 008°06'16213.5 050 / 251019.210.8 10.1-8.413.0
2018-Feb-21 07:00N 42°48' W 009°48'5513.7 020 / 381018.410.8 10.8 9.014.0
2018-Feb-21 03:00N 41°54' W 010°00'14513.9 010 / 371018.110.8 12.5 9.614.0
2018-Feb-20 16:32N 39°33' W 010°42'413.8
2018-Feb-20 16:13N 39°28' W 010°43'313.7
2018-Feb-20 16:00N 39°25' W 010°44'713.9
2018-Feb-20 15:28N 39°18' W 010°45'614.0
2018-Feb-20 15:00N 39°12' W 010°47'5214.2
2018-Feb-20 11:23N 38°21' W 010°59'514.6
2018-Feb-20 11:00N 38°16' W 011°01'814.7
2018-Feb-20 10:28N 38°08' W 011°03'1114.7
2018-Feb-20 09:43N 37°57' W 011°06'514.7
2018-Feb-20 09:23N 37°53' W 011°07'914.5
2018-Feb-20 08:48N 37°44' W 011°09'414.2
2018-Feb-20 08:30N 37°40' W 011°10'914.1
2018-Feb-20 07:54N 37°32' W 011°12'10014.4
2018-Feb-20 01:00N 35°54' W 011°36'34914.5 350 / 341019.110.8 14.710.515.0
2018-Feb-19 01:00N 30°12' W 013°00'6014.6 350 / 201018.010.8 16.510.917.0
2018-Feb-18 20:54N 29°14' W 013°15'513.9
2018-Feb-18 20:30N 29°09' W 013°18'714.5
2018-Feb-18 20:00N 29°03' W 013°23'713.6
2018-Feb-18 19:30N 28°58' W 013°28'3 6.0
2018-Feb-18 19:00N 28°58' W 013°32'0 0.3
2018-Feb-18 18:26N 28°58' W 013°32'0 0.0
2018-Feb-18 17:56N 28°58' W 013°32'0 0.0
2018-Feb-18 17:26N 28°58' W 013°32'0 0.0
2018-Feb-18 16:56N 28°58' W 013°32'0 0.0
2018-Feb-18 16:26N 28°58' W 013°32'0 0.0
2018-Feb-18 15:50N 28°58' W 013°32'0 0.0
2018-Feb-18 15:26N 28°58' W 013°32'0 0.0
2018-Feb-18 14:56N 28°58' W 013°32'0 0.0
2018-Feb-18 14:26N 28°58' W 013°32'0 0.0
2018-Feb-18 13:56N 28°58' W 013°32'0 0.0
2018-Feb-18 13:20N 28°58' W 013°32'0 0.0
2018-Feb-18 12:59N 28°58' W 013°32'0 0.0
2018-Feb-18 12:20N 28°58' W 013°32'0 0.0
2018-Feb-18 11:56N 28°58' W 013°32'0 0.0
2018-Feb-18 11:14N 28°58' W 013°32'0 0.0
2018-Feb-18 10:50N 28°58' W 013°32'0 0.0
2018-Feb-18 10:26N 28°58' W 013°32'0 0.0
2018-Feb-18 09:56N 28°58' W 013°32'0 0.0
2018-Feb-18 09:26N 28°58' W 013°32'0 0.0
2018-Feb-18 08:56N 28°58' W 013°32'0 0.0
2018-Feb-18 08:26N 28°58' W 013°32'0 0.8
2018-Feb-18 08:01N 28°58' W 013°32'2 3.0
2018-Feb-18 07:30N 28°56' W 013°32'5 9.5
2018-Feb-18 07:01N 28°54' W 013°37'713.3
2018-Feb-18 06:29N 28°50' W 013°44'612.9
2018-Feb-18 06:00N 28°48' W 013°50'1014.8
2018-Feb-18 05:21N 28°48' W 014°02'3515.1
2018-Feb-18 03:00N 28°42' W 014°42'816.0
2018-Feb-18 02:30N 28°40' W 014°50'816.2
2018-Feb-18 02:00N 28°39' W 014°59'5376.4
2018-Feb-18 02:00N 28°36' W 014°54'1325.1 010 / 261021.610.8 16.211.817.0
2018-Feb-18 01:29N 28°37' W 015°08'714.8
2018-Feb-18 01:00N 28°36' W 015°16'714.7
2018-Feb-18 00:30N 28°36' W 015°25'714.6
2018-Feb-18 00:00N 28°35' W 015°33'714.5
2018-Feb-17 23:30N 28°34' W 015°41'714.3
2018-Feb-17 23:00N 28°29' W 015°47'714.4
2018-Feb-17 22:30N 28°24' W 015°52'713.2
2018-Feb-17 22:00N 28°20' W 015°59'714.7
2018-Feb-17 21:30N 28°23' W 016°06'713.8
2018-Feb-17 21:01N 28°27' W 016°12'2 4.7
2018-Feb-17 20:30N 28°29' W 016°14'0 0.5
2018-Feb-17 19:55N 28°28' W 016°15'0 0.0
2018-Feb-17 19:28N 28°28' W 016°15'0 0.0
2018-Feb-17 18:58N 28°28' W 016°15'0 0.0
2018-Feb-17 18:28N 28°28' W 016°15'0 0.0
2018-Feb-17 17:58N 28°28' W 016°15'0 0.0
2018-Feb-17 17:28N 28°28' W 016°15'0 0.0
2018-Feb-17 16:58N 28°28' W 016°15'0 0.0
2018-Feb-17 16:28N 28°28' W 016°15'0 0.0
2018-Feb-17 15:58N 28°28' W 016°15'0 0.0
2018-Feb-17 15:28N 28°28' W 016°15'0 0.0
2018-Feb-17 14:58N 28°28' W 016°15'0 0.0
2018-Feb-17 14:28N 28°28' W 016°15'0 0.0
2018-Feb-17 13:58N 28°28' W 016°15'0 0.0
2018-Feb-17 13:28N 28°28' W 016°15'0 0.0
2018-Feb-17 12:58N 28°28' W 016°15'0 0.0
2018-Feb-17 12:28N 28°28' W 016°15'0 0.0
2018-Feb-17 11:58N 28°28' W 016°15'0 0.0
2018-Feb-17 11:28N 28°28' W 016°15'0 0.0
2018-Feb-17 10:58N 28°28' W 016°15'0 0.0
2018-Feb-17 10:28N 28°28' W 016°15'0 0.0
2018-Feb-17 09:58N 28°28' W 016°15'0 0.0
2018-Feb-17 09:28N 28°28' W 016°15'0 0.0
2018-Feb-17 08:58N 28°28' W 016°15'0 0.0
2018-Feb-17 08:28N 28°28' W 016°15'0 0.0
2018-Feb-17 07:58N 28°28' W 016°15'0 0.0
2018-Feb-17 07:28N 28°28' W 016°15'1 1.6
2018-Feb-17 07:00N 28°29' W 016°14'3 6.6
2018-Feb-17 06:30N 28°27' W 016°11'611.4
2018-Feb-17 06:00N 28°25' W 016°05'612.0
2018-Feb-17 05:30N 28°21' W 015°59'5 9.7
2018-Feb-17 05:00N 28°17' W 015°57'5714.3
2018-Feb-17 01:00N 27°36' W 016°42'30814.7 020 / 271023.010.8 17.515.817.0
2018-Feb-16 04:00N 26°06' W 022°12'   030 / 201020.410.8 19.013.2

Dump ship's entire track history